sensor_id;sensor_type;location;lat;lon;timestamp;pressure;altitude;pressure_sealevel;temperature;humidity
20119;BME280;10220;42.716;23.306;2023-03-04T00:03:02;95293.22;;;6.21;100.00
20119;BME280;10220;42.716;23.306;2023-03-04T00:05:36;95249.81;;;5.81;100.00
20119;BME280;10220;42.716;23.306;2023-03-04T00:08:01;95256.59;;;5.74;100.00
20119;BME280;10220;42.716;23.306;2023-03-04T00:10:27;95297.97;;;5.87;100.00
20119;BME280;10220;42.716;23.306;2023-03-04T00:12:52;95257.69;;;5.80;100.00
20119;BME280;10220;42.716;23.306;2023-03-04T00:15:17;95279.03;;;5.80;100.00
20119;BME280;10220;42.716;23.306;2023-03-04T00:17:43;95265.63;;;5.92;100.00
20119;BME280;10220;42.716;23.306;2023-03-04T00:20:11;95274.03;;;6.23;100.00
20119;BME280;10220;42.716;23.306;2023-03-04T00:22:37;95282.09;;;6.20;100.00
20119;BME280;10220;42.716;23.306;2023-03-04T00:25:11;95273.56;;;6.05;100.00
20119;BME280;10220;42.716;23.306;2023-03-04T00:27:36;95287.03;;;6.07;100.00
20119;BME280;10220;42.716;23.306;2023-03-04T00:30:04;95250.72;;;6.10;100.00
20119;BME280;10220;42.716;23.306;2023-03-04T00:32:32;95248.41;;;6.15;100.00
20119;BME280;10220;42.716;23.306;2023-03-04T00:34:58;95249.41;;;6.14;100.00
20119;BME280;10220;42.716;23.306;2023-03-04T00:37:23;95263.72;;;6.31;100.00
20119;BME280;10220;42.716;23.306;2023-03-04T00:39:48;95264.03;;;6.28;100.00
20119;BME280;10220;42.716;23.306;2023-03-04T00:42:14;95258.56;;;6.09;100.00
20119;BME280;10220;42.716;23.306;2023-03-04T00:44:41;95247.03;;;6.05;100.00
20119;BME280;10220;42.716;23.306;2023-03-04T00:47:09;95262.00;;;6.24;100.00
20119;BME280;10220;42.716;23.306;2023-03-04T00:49:35;95252.41;;;6.18;100.00
20119;BME280;10220;42.716;23.306;2023-03-04T00:52:02;95230.91;;;5.96;100.00
20119;BME280;10220;42.716;23.306;2023-03-04T00:54:27;95266.59;;;5.91;100.00
20119;BME280;10220;42.716;23.306;2023-03-04T00:56:53;95265.22;;;6.03;100.00
20119;BME280;10220;42.716;23.306;2023-03-04T00:59:21;95244.97;;;5.86;100.00
20119;BME280;10220;42.716;23.306;2023-03-04T01:01:46;95262.59;;;5.89;100.00
20119;BME280;10220;42.716;23.306;2023-03-04T01:04:17;95231.06;;;5.73;100.00
20119;BME280;10220;42.716;23.306;2023-03-04T01:06:42;95258.75;;;6.07;100.00
20119;BME280;10220;42.716;23.306;2023-03-04T01:09:08;95266.66;;;6.06;100.00
20119;BME280;10220;42.716;23.306;2023-03-04T01:11:33;95260.19;;;6.10;100.00
20119;BME280;10220;42.716;23.306;2023-03-04T01:13:58;95249.22;;;6.16;100.00
20119;BME280;10220;42.716;23.306;2023-03-04T01:16:24;95254.66;;;5.98;100.00
20119;BME280;10220;42.716;23.306;2023-03-04T01:18:49;95243.13;;;5.94;100.00
20119;BME280;10220;42.716;23.306;2023-03-04T01:21:15;95243.53;;;5.83;100.00
20119;BME280;10220;42.716;23.306;2023-03-04T01:23:41;95236.28;;;5.87;100.00
20119;BME280;10220;42.716;23.306;2023-03-04T01:26:07;95236.59;;;6.06;100.00
20119;BME280;10220;42.716;23.306;2023-03-04T01:28:32;95242.09;;;6.18;100.00
20119;BME280;10220;42.716;23.306;2023-03-04T01:31:03;95234.50;;;6.24;100.00
20119;BME280;10220;42.716;23.306;2023-03-04T01:33:29;95245.63;;;6.39;100.00
20119;BME280;10220;42.716;23.306;2023-03-04T01:35:56;95248.38;;;6.38;100.00
20119;BME280;10220;42.716;23.306;2023-03-04T01:38:22;95226.31;;;6.06;100.00
20119;BME280;10220;42.716;23.306;2023-03-04T01:40:48;95228.66;;;6.16;100.00
20119;BME280;10220;42.716;23.306;2023-03-04T01:43:21;95237.44;;;6.36;100.00
20119;BME280;10220;42.716;23.306;2023-03-04T01:45:48;95236.03;;;6.33;100.00
20119;BME280;10220;42.716;23.306;2023-03-04T01:48:15;95210.97;;;6.13;100.00
20119;BME280;10220;42.716;23.306;2023-03-04T01:50:42;95225.34;;;6.22;100.00
20119;BME280;10220;42.716;23.306;2023-03-04T01:53:19;95217.31;;;6.25;100.00
20119;BME280;10220;42.716;23.306;2023-03-04T01:55:48;95200.44;;;6.08;100.00
20119;BME280;10220;42.716;23.306;2023-03-04T01:58:14;95223.88;;;5.90;100.00
20119;BME280;10220;42.716;23.306;2023-03-04T02:00:40;95171.53;;;5.69;100.00
20119;BME280;10220;42.716;23.306;2023-03-04T02:03:10;95211.91;;;5.83;100.00
20119;BME280;10220;42.716;23.306;2023-03-04T02:05:38;95191.00;;;5.64;100.00
20119;BME280;10220;42.716;23.306;2023-03-04T02:08:08;95190.13;;;5.71;100.00
20119;BME280;10220;42.716;23.306;2023-03-04T02:10:34;95208.75;;;5.73;100.00
20119;BME280;10220;42.716;23.306;2023-03-04T02:13:00;95222.88;;;5.77;100.00
20119;BME280;10220;42.716;23.306;2023-03-04T02:15:27;95225.91;;;5.81;100.00
20119;BME280;10220;42.716;23.306;2023-03-04T02:17:52;95223.34;;;5.81;100.00
20119;BME280;10220;42.716;23.306;2023-03-04T02:20:44;95199.00;;;5.91;100.00
20119;BME280;10220;42.716;23.306;2023-03-04T02:23:25;95220.69;;;5.88;100.00
20119;BME280;10220;42.716;23.306;2023-03-04T02:26:22;95214.75;;;5.88;100.00
20119;BME280;10220;42.716;23.306;2023-03-04T02:28:51;95217.94;;;5.90;100.00
20119;BME280;10220;42.716;23.306;2023-03-04T02:31:27;95220.66;;;6.11;100.00
20119;BME280;10220;42.716;23.306;2023-03-04T02:33:56;95215.81;;;6.44;100.00
20119;BME280;10220;42.716;23.306;2023-03-04T02:36:23;95207.03;;;6.39;100.00
20119;BME280;10220;42.716;23.306;2023-03-04T02:38:51;95218.47;;;6.37;100.00
20119;BME280;10220;42.716;23.306;2023-03-04T02:41:21;95202.22;;;6.22;100.00
20119;BME280;10220;42.716;23.306;2023-03-04T02:43:49;95207.34;;;6.22;100.00
20119;BME280;10220;42.716;23.306;2023-03-04T02:46:16;95155.28;;;5.77;100.00
20119;BME280;10220;42.716;23.306;2023-03-04T02:48:41;95161.88;;;5.49;100.00
20119;BME280;10220;42.716;23.306;2023-03-04T02:51:07;95206.91;;;5.82;100.00
20119;BME280;10220;42.716;23.306;2023-03-04T02:53:32;95175.84;;;5.77;100.00
20119;BME280;10220;42.716;23.306;2023-03-04T02:55:58;95158.28;;;5.94;100.00
20119;BME280;10220;42.716;23.306;2023-03-04T02:58:23;95165.59;;;6.20;100.00
20119;BME280;10220;42.716;23.306;2023-03-04T03:00:49;95185.56;;;6.46;100.00
20119;BME280;10220;42.716;23.306;2023-03-04T03:03:14;95189.69;;;5.90;100.00
20119;BME280;10220;42.716;23.306;2023-03-04T03:05:39;95200.13;;;5.88;100.00
20119;BME280;10220;42.716;23.306;2023-03-04T03:08:05;95210.16;;;5.98;100.00
20119;BME280;10220;42.716;23.306;2023-03-04T03:10:31;95211.19;;;5.89;100.00
20119;BME280;10220;42.716;23.306;2023-03-04T03:12:57;95168.63;;;5.50;100.00
20119;BME280;10220;42.716;23.306;2023-03-04T03:15:23;95201.78;;;6.04;100.00
20119;BME280;10220;42.716;23.306;2023-03-04T03:17:48;95209.94;;;6.36;100.00
20119;BME280;10220;42.716;23.306;2023-03-04T03:20:14;95214.75;;;5.88;100.00
20119;BME280;10220;42.716;23.306;2023-03-04T03:22:40;95207.84;;;5.88;100.00
20119;BME280;10220;42.716;23.306;2023-03-04T03:25:07;95195.44;;;5.70;100.00
20119;BME280;10220;42.716;23.306;2023-03-04T03:27:33;95154.94;;;5.35;100.00
20119;BME280;10220;42.716;23.306;2023-03-04T03:29:58;95176.28;;;5.13;100.00
20119;BME280;10220;42.716;23.306;2023-03-04T03:32:23;95193.47;;;5.35;100.00
20119;BME280;10220;42.716;23.306;2023-03-04T03:34:49;95179.19;;;5.32;100.00
20119;BME280;10220;42.716;23.306;2023-03-04T03:37:14;95189.78;;;5.52;100.00
20119;BME280;10220;42.716;23.306;2023-03-04T03:39:40;95166.19;;;5.34;100.00
20119;BME280;10220;42.716;23.306;2023-03-04T03:42:05;95192.81;;;5.33;100.00
20119;BME280;10220;42.716;23.306;2023-03-04T03:44:31;95197.09;;;5.18;100.00
20119;BME280;10220;42.716;23.306;2023-03-04T03:46:56;95215.69;;;5.65;100.00
20119;BME280;10220;42.716;23.306;2023-03-04T03:49:22;95198.34;;;5.89;100.00
20119;BME280;10220;42.716;23.306;2023-03-04T03:51:47;95191.09;;;5.70;100.00
20119;BME280;10220;42.716;23.306;2023-03-04T03:54:13;95193.22;;;5.89;100.00
20119;BME280;10220;42.716;23.306;2023-03-04T03:56:38;95185.00;;;5.49;100.00
20119;BME280;10220;42.716;23.306;2023-03-04T03:59:04;95190.25;;;5.33;100.00
20119;BME280;10220;42.716;23.306;2023-03-04T04:01:29;95172.81;;;4.98;100.00
20119;BME280;10220;42.716;23.306;2023-03-04T04:03:55;95176.16;;;5.07;100.00
20119;BME280;10220;42.716;23.306;2023-03-04T04:06:20;95193.00;;;5.31;100.00
20119;BME280;10220;42.716;23.306;2023-03-04T04:08:46;95178.84;;;5.35;100.00
20119;BME280;10220;42.716;23.306;2023-03-04T04:11:12;95182.66;;;5.39;100.00
20119;BME280;10220;42.716;23.306;2023-03-04T04:13:37;95180.94;;;5.54;100.00
20119;BME280;10220;42.716;23.306;2023-03-04T04:16:03;95163.81;;;5.69;100.00
20119;BME280;10220;42.716;23.306;2023-03-04T04:18:28;95177.41;;;5.33;100.00
20119;BME280;10220;42.716;23.306;2023-03-04T04:20:54;95172.38;;;5.17;100.00
20119;BME280;10220;42.716;23.306;2023-03-04T04:23:20;95173.28;;;5.46;100.00
20119;BME280;10220;42.716;23.306;2023-03-04T04:25:45;95170.56;;;5.25;100.00
20119;BME280;10220;42.716;23.306;2023-03-04T04:28:11;95159.63;;;5.09;100.00
20119;BME280;10220;42.716;23.306;2023-03-04T04:30:37;95139.09;;;4.49;100.00
20119;BME280;10220;42.716;23.306;2023-03-04T04:33:03;95157.16;;;4.55;100.00
20119;BME280;10220;42.716;23.306;2023-03-04T04:35:30;95170.13;;;4.92;100.00
20119;BME280;10220;42.716;23.306;2023-03-04T04:37:56;95178.31;;;5.40;100.00
20119;BME280;10220;42.716;23.306;2023-03-04T04:40:21;95175.13;;;5.38;100.00
20119;BME280;10220;42.716;23.306;2023-03-04T04:42:47;95141.66;;;5.09;100.00
20119;BME280;10220;42.716;23.306;2023-03-04T04:45:12;95162.53;;;4.98;100.00
20119;BME280;10220;42.716;23.306;2023-03-04T04:47:37;95155.47;;;4.78;100.00
20119;BME280;10220;42.716;23.306;2023-03-04T04:50:03;95174.72;;;5.04;100.00
20119;BME280;10220;42.716;23.306;2023-03-04T04:52:29;95169.56;;;4.82;100.00
20119;BME280;10220;42.716;23.306;2023-03-04T04:54:54;95184.00;;;4.75;100.00
20119;BME280;10220;42.716;23.306;2023-03-04T04:57:20;95187.72;;;5.03;100.00
20119;BME280;10220;42.716;23.306;2023-03-04T04:59:45;95177.91;;;5.06;100.00
20119;BME280;10220;42.716;23.306;2023-03-04T05:02:10;95188.81;;;4.78;100.00
20119;BME280;10220;42.716;23.306;2023-03-04T05:04:36;95185.50;;;4.62;100.00
20119;BME280;10220;42.716;23.306;2023-03-04T05:07:01;95173.81;;;4.59;100.00
20119;BME280;10220;42.716;23.306;2023-03-04T05:09:27;95162.81;;;4.43;100.00
20119;BME280;10220;42.716;23.306;2023-03-04T05:11:52;95205.84;;;4.63;100.00
20119;BME280;10220;42.716;23.306;2023-03-04T05:14:18;95210.91;;;4.79;100.00
20119;BME280;10220;42.716;23.306;2023-03-04T05:16:43;95216.03;;;4.79;100.00
20119;BME280;10220;42.716;23.306;2023-03-04T05:19:09;95188.13;;;4.46;100.00
20119;BME280;10220;42.716;23.306;2023-03-04T05:21:34;95173.19;;;4.57;100.00
20119;BME280;10220;42.716;23.306;2023-03-04T05:23:59;95185.63;;;4.68;100.00
20119;BME280;10220;42.716;23.306;2023-03-04T05:26:25;95212.81;;;4.85;100.00
20119;BME280;10220;42.716;23.306;2023-03-04T05:28:50;95212.81;;;5.15;100.00
20119;BME280;10220;42.716;23.306;2023-03-04T05:31:16;95219.97;;;5.27;100.00
20119;BME280;10220;42.716;23.306;2023-03-04T05:33:42;95226.84;;;5.35;100.00
20119;BME280;10220;42.716;23.306;2023-03-04T05:36:08;95209.53;;;5.29;100.00
20119;BME280;10220;42.716;23.306;2023-03-04T05:38:34;95224.41;;;5.33;100.00
20119;BME280;10220;42.716;23.306;2023-03-04T05:41:05;95214.19;;;5.56;100.00
20119;BME280;10220;42.716;23.306;2023-03-04T05:43:32;95214.47;;;5.83;100.00
20119;BME280;10220;42.716;23.306;2023-03-04T05:46:00;95201.53;;;5.69;100.00
20119;BME280;10220;42.716;23.306;2023-03-04T05:48:26;95216.69;;;5.86;100.00
20119;BME280;10220;42.716;23.306;2023-03-04T05:50:58;95218.75;;;6.05;100.00
20119;BME280;10220;42.716;23.306;2023-03-04T05:53:24;95206.94;;;5.96;100.00
20119;BME280;10220;42.716;23.306;2023-03-04T05:55:50;95225.38;;;6.36;100.00
20119;BME280;10220;42.716;23.306;2023-03-04T05:58:16;95236.22;;;6.46;100.00
20119;BME280;10220;42.716;23.306;2023-03-04T06:00:42;95241.91;;;6.42;100.00
20119;BME280;10220;42.716;23.306;2023-03-04T06:03:18;95239.53;;;6.54;100.00
20119;BME280;10220;42.716;23.306;2023-03-04T06:05:44;95237.03;;;6.75;100.00
20119;BME280;10220;42.716;23.306;2023-03-04T06:08:11;95241.53;;;6.88;100.00
20119;BME280;10220;42.716;23.306;2023-03-04T06:10:37;95218.19;;;6.89;100.00
20119;BME280;10220;42.716;23.306;2023-03-04T06:13:03;95227.41;;;6.98;100.00
20119;BME280;10220;42.716;23.306;2023-03-04T06:15:28;95216.81;;;7.07;100.00
20119;BME280;10220;42.716;23.306;2023-03-04T06:17:54;95245.31;;;7.20;100.00
20119;BME280;10220;42.716;23.306;2023-03-04T06:20:20;95233.84;;;7.23;100.00
20119;BME280;10220;42.716;23.306;2023-03-04T06:22:45;95239.97;;;7.22;100.00
20119;BME280;10220;42.716;23.306;2023-03-04T06:25:11;95247.03;;;7.13;100.00
20119;BME280;10220;42.716;23.306;2023-03-04T06:27:36;95229.38;;;7.10;100.00
20119;BME280;10220;42.716;23.306;2023-03-04T06:30:02;95256.31;;;7.29;100.00
20119;BME280;10220;42.716;23.306;2023-03-04T06:32:28;95258.28;;;7.12;100.00
20119;BME280;10220;42.716;23.306;2023-03-04T06:34:53;95261.75;;;7.05;100.00
20119;BME280;10220;42.716;23.306;2023-03-04T06:37:19;95267.56;;;6.64;100.00
20119;BME280;10220;42.716;23.306;2023-03-04T06:39:44;95240.38;;;6.33;100.00
20119;BME280;10220;42.716;23.306;2023-03-04T06:42:10;95253.94;;;6.27;100.00
20119;BME280;10220;42.716;23.306;2023-03-04T06:44:36;95219.44;;;6.21;100.00
20119;BME280;10220;42.716;23.306;2023-03-04T06:47:01;95251.28;;;6.49;100.00
20119;BME280;10220;42.716;23.306;2023-03-04T06:49:26;95239.47;;;6.40;100.00
20119;BME280;10220;42.716;23.306;2023-03-04T06:51:52;95253.34;;;6.82;100.00
20119;BME280;10220;42.716;23.306;2023-03-04T06:54:17;95242.53;;;6.72;100.00
20119;BME280;10220;42.716;23.306;2023-03-04T06:56:44;95250.94;;;6.38;100.00
20119;BME280;10220;42.716;23.306;2023-03-04T06:59:09;95250.56;;;6.26;100.00
20119;BME280;10220;42.716;23.306;2023-03-04T07:01:35;95272.78;;;6.19;100.00
20119;BME280;10220;42.716;23.306;2023-03-04T07:04:01;95269.75;;;6.38;100.00
20119;BME280;10220;42.716;23.306;2023-03-04T07:06:27;95260.06;;;6.40;100.00
20119;BME280;10220;42.716;23.306;2023-03-04T07:08:54;95212.25;;;6.17;100.00
20119;BME280;10220;42.716;23.306;2023-03-04T07:11:20;95274.09;;;6.38;100.00
20119;BME280;10220;42.716;23.306;2023-03-04T07:13:47;95270.88;;;6.36;100.00
20119;BME280;10220;42.716;23.306;2023-03-04T07:16:15;95283.50;;;6.08;100.00
20119;BME280;10220;42.716;23.306;2023-03-04T07:18:42;95279.78;;;6.11;100.00
20119;BME280;10220;42.716;23.306;2023-03-04T07:21:08;95269.38;;;6.04;100.00
20119;BME280;10220;42.716;23.306;2023-03-04T07:23:34;95278.25;;;6.02;100.00
20119;BME280;10220;42.716;23.306;2023-03-04T07:26:01;95250.88;;;5.86;100.00
20119;BME280;10220;42.716;23.306;2023-03-04T07:28:27;95236.88;;;6.11;100.00
20119;BME280;10220;42.716;23.306;2023-03-04T07:30:55;95258.66;;;6.38;100.00
20119;BME280;10220;42.716;23.306;2023-03-04T07:33:20;95265.66;;;6.43;100.00
20119;BME280;10220;42.716;23.306;2023-03-04T07:35:46;95269.59;;;6.68;100.00
20119;BME280;10220;42.716;23.306;2023-03-04T07:38:11;95242.88;;;6.69;100.00
20119;BME280;10220;42.716;23.306;2023-03-04T07:40:37;95282.44;;;7.11;100.00
20119;BME280;10220;42.716;23.306;2023-03-04T07:43:02;95283.59;;;6.95;100.00
20119;BME280;10220;42.716;23.306;2023-03-04T07:45:28;95264.50;;;7.18;100.00
20119;BME280;10220;42.716;23.306;2023-03-04T07:47:53;95258.56;;;7.17;100.00
20119;BME280;10220;42.716;23.306;2023-03-04T07:50:19;95272.53;;;7.44;100.00
20119;BME280;10220;42.716;23.306;2023-03-04T07:52:47;95274.00;;;7.67;100.00
20119;BME280;10220;42.716;23.306;2023-03-04T07:55:14;95257.56;;;7.89;100.00
20119;BME280;10220;42.716;23.306;2023-03-04T07:57:41;95277.25;;;7.55;100.00
20119;BME280;10220;42.716;23.306;2023-03-04T08:00:09;95268.94;;;7.59;100.00
20119;BME280;10220;42.716;23.306;2023-03-04T08:02:35;95258.06;;;7.78;100.00
20119;BME280;10220;42.716;23.306;2023-03-04T08:05:00;95268.06;;;7.87;100.00
20119;BME280;10220;42.716;23.306;2023-03-04T08:07:26;95271.63;;;8.07;100.00
20119;BME280;10220;42.716;23.306;2023-03-04T08:09:51;95255.56;;;8.26;100.00
20119;BME280;10220;42.716;23.306;2023-03-04T08:12:17;95268.00;;;8.22;100.00
20119;BME280;10220;42.716;23.306;2023-03-04T08:14:42;95262.09;;;7.87;100.00
20119;BME280;10220;42.716;23.306;2023-03-04T08:17:10;95264.97;;;7.77;100.00
20119;BME280;10220;42.716;23.306;2023-03-04T08:19:39;95282.38;;;7.19;100.00
20119;BME280;10220;42.716;23.306;2023-03-04T08:22:04;95235.50;;;6.95;100.00
20119;BME280;10220;42.716;23.306;2023-03-04T08:24:30;95263.97;;;7.57;100.00
20119;BME280;10220;42.716;23.306;2023-03-04T08:26:55;95270.88;;;7.36;100.00
20119;BME280;10220;42.716;23.306;2023-03-04T08:29:22;95271.34;;;7.25;100.00
20119;BME280;10220;42.716;23.306;2023-03-04T08:31:49;95274.66;;;7.55;100.00
20119;BME280;10220;42.716;23.306;2023-03-04T08:34:15;95276.94;;;7.64;100.00
20119;BME280;10220;42.716;23.306;2023-03-04T08:36:41;95247.81;;;7.49;100.00
20119;BME280;10220;42.716;23.306;2023-03-04T08:39:08;95278.63;;;7.71;100.00
20119;BME280;10220;42.716;23.306;2023-03-04T08:41:35;95263.22;;;7.78;100.00
20119;BME280;10220;42.716;23.306;2023-03-04T08:44:07;95270.66;;;7.52;100.00
20119;BME280;10220;42.716;23.306;2023-03-04T08:46:35;95276.03;;;7.22;100.00
20119;BME280;10220;42.716;23.306;2023-03-04T08:49:04;95262.09;;;7.16;100.00
20119;BME280;10220;42.716;23.306;2023-03-04T08:51:30;95276.50;;;7.60;100.00
20119;BME280;10220;42.716;23.306;2023-03-04T08:53:55;95270.66;;;7.52;100.00
20119;BME280;10220;42.716;23.306;2023-03-04T08:56:21;95249.72;;;7.41;100.00
20119;BME280;10220;42.716;23.306;2023-03-04T08:58:47;95245.13;;;7.22;100.00
20119;BME280;10220;42.716;23.306;2023-03-04T09:01:13;95265.97;;;7.41;100.00
20119;BME280;10220;42.716;23.306;2023-03-04T09:03:39;95257.63;;;7.74;100.00
20119;BME280;10220;42.716;23.306;2023-03-04T09:06:06;95267.25;;;7.87;100.00
20119;BME280;10220;42.716;23.306;2023-03-04T09:08:32;95260.69;;;8.05;100.00
20119;BME280;10220;42.716;23.306;2023-03-04T09:10:58;95247.22;;;8.10;100.00
20119;BME280;10220;42.716;23.306;2023-03-04T09:13:25;95245.81;;;8.28;100.00
20119;BME280;10220;42.716;23.306;2023-03-04T09:15:52;95226.84;;;8.35;100.00
20119;BME280;10220;42.716;23.306;2023-03-04T09:18:19;95239.97;;;8.40;100.00
20119;BME280;10220;42.716;23.306;2023-03-04T09:20:45;95251.28;;;8.67;100.00
20119;BME280;10220;42.716;23.306;2023-03-04T09:23:11;95205.41;;;8.41;100.00
20119;BME280;10220;42.716;23.306;2023-03-04T09:25:38;95237.19;;;8.69;100.00
20119;BME280;10220;42.716;23.306;2023-03-04T09:28:17;95248.91;;;9.05;100.00
20119;BME280;10220;42.716;23.306;2023-03-04T09:30:43;95251.63;;;8.91;100.00
20119;BME280;10220;42.716;23.306;2023-03-04T09:33:09;95245.66;;;8.90;100.00
20119;BME280;10220;42.716;23.306;2023-03-04T09:35:34;95249.66;;;8.99;100.00
20119;BME280;10220;42.716;23.306;2023-03-04T09:38:00;95192.41;;;8.96;100.00
20119;BME280;10220;42.716;23.306;2023-03-04T09:40:29;95241.84;;;9.27;100.00
20119;BME280;10220;42.716;23.306;2023-03-04T09:43:01;95217.66;;;9.40;100.00
20119;BME280;10220;42.716;23.306;2023-03-04T09:45:41;95242.72;;;9.46;100.00
20119;BME280;10220;42.716;23.306;2023-03-04T09:48:09;95224.53;;;9.21;100.00
20119;BME280;10220;42.716;23.306;2023-03-04T09:50:40;95234.97;;;8.32;100.00
20119;BME280;10220;42.716;23.306;2023-03-04T09:55:48;95214.56;;;8.44;100.00
20119;BME280;10220;42.716;23.306;2023-03-04T09:58:38;95224.97;;;8.90;100.00
20119;BME280;10220;42.716;23.306;2023-03-04T10:04:05;95226.03;;;9.02;100.00
20119;BME280;10220;42.716;23.306;2023-03-04T10:06:37;95210.34;;;8.64;100.00
20119;BME280;10220;42.716;23.306;2023-03-04T10:09:10;95208.34;;;8.99;100.00
20119;BME280;10220;42.716;23.306;2023-03-04T10:12:05;95206.28;;;9.29;100.00
20119;BME280;10220;42.716;23.306;2023-03-04T10:14:36;95216.44;;;9.36;100.00
20119;BME280;10220;42.716;23.306;2023-03-04T10:17:34;95209.56;;;9.76;100.00
20119;BME280;10220;42.716;23.306;2023-03-04T10:23:29;95189.00;;;9.35;100.00
20119;BME280;10220;42.716;23.306;2023-03-04T10:25:55;95168.94;;;9.44;100.00
20119;BME280;10220;42.716;23.306;2023-03-04T10:28:28;95208.19;;;9.93;100.00
20119;BME280;10220;42.716;23.306;2023-03-04T10:31:01;95203.59;;;9.88;100.00
20119;BME280;10220;42.716;23.306;2023-03-04T10:33:31;95194.81;;;9.63;100.00
20119;BME280;10220;42.716;23.306;2023-03-04T10:38:35;95192.84;;;9.72;100.00
20119;BME280;10220;42.716;23.306;2023-03-04T10:41:11;95187.06;;;9.70;100.00
20119;BME280;10220;42.716;23.306;2023-03-04T10:43:37;95177.34;;;9.85;100.00
20119;BME280;10220;42.716;23.306;2023-03-04T10:46:02;95172.59;;;10.07;100.00
20119;BME280;10220;42.716;23.306;2023-03-04T10:48:29;95172.38;;;10.28;100.00
20119;BME280;10220;42.716;23.306;2023-03-04T10:51:23;95169.09;;;9.36;100.00
20119;BME280;10220;42.716;23.306;2023-03-04T10:53:51;95160.63;;;9.61;100.00
20119;BME280;10220;42.716;23.306;2023-03-04T10:56:40;95160.84;;;10.18;100.00
20119;BME280;10220;42.716;23.306;2023-03-04T10:59:54;95159.28;;;9.97;100.00
20119;BME280;10220;42.716;23.306;2023-03-04T11:02:29;95158.84;;;9.88;100.00
20119;BME280;10220;42.716;23.306;2023-03-04T11:07:53;95146.53;;;10.15;100.00
20119;BME280;10220;42.716;23.306;2023-03-04T11:10:25;95133.75;;;10.33;100.00
20119;BME280;10220;42.716;23.306;2023-03-04T11:13:18;95138.66;;;10.60;100.00
20119;BME280;10220;42.716;23.306;2023-03-04T11:18:41;95126.81;;;9.82;100.00
20119;BME280;10220;42.716;23.306;2023-03-04T11:21:19;95117.88;;;10.17;100.00
20119;BME280;10220;42.716;23.306;2023-03-04T11:24:23;95117.06;;;9.58;100.00
20119;BME280;10220;42.716;23.306;2023-03-04T11:27:17;95114.78;;;9.23;100.00
20119;BME280;10220;42.716;23.306;2023-03-04T11:29:59;95106.09;;;9.50;100.00
20119;BME280;10220;42.716;23.306;2023-03-04T11:32:36;95089.75;;;9.94;100.00
20119;BME280;10220;42.716;23.306;2023-03-04T11:40:49;95082.56;;;10.35;100.00
20119;BME280;10220;42.716;23.306;2023-03-04T11:43:31;95088.06;;;10.58;100.00
20119;BME280;10220;42.716;23.306;2023-03-04T11:51:38;95067.91;;;9.33;100.00
20119;BME280;10220;42.716;23.306;2023-03-04T11:56:52;95073.06;;;9.78;100.00
20119;BME280;10220;42.716;23.306;2023-03-04T11:59:37;95060.53;;;10.07;100.00
20119;BME280;10220;42.716;23.306;2023-03-04T12:02:14;95069.81;;;10.47;100.00
20119;BME280;10220;42.716;23.306;2023-03-04T12:04:57;95069.44;;;10.30;100.00
20119;BME280;10220;42.716;23.306;2023-03-04T12:08:11;95053.28;;;10.35;100.00
20119;BME280;10220;42.716;23.306;2023-03-04T12:10:52;95067.22;;;10.47;100.00
20119;BME280;10220;42.716;23.306;2023-03-04T12:16:45;95060.69;;;10.31;100.00
20119;BME280;10220;42.716;23.306;2023-03-04T12:27:26;95047.34;;;10.21;100.00
20119;BME280;10220;42.716;23.306;2023-03-04T12:29:58;95044.56;;;10.16;100.00
20119;BME280;10220;42.716;23.306;2023-03-04T12:32:39;95041.75;;;10.24;100.00
20119;BME280;10220;42.716;23.306;2023-03-04T12:46:25;95028.50;;;10.08;100.00
20119;BME280;10220;42.716;23.306;2023-03-04T12:49:34;95017.06;;;10.22;100.00
20119;BME280;10220;42.716;23.306;2023-03-04T12:55:09;95014.97;;;9.74;100.00
20119;BME280;10220;42.716;23.306;2023-03-04T12:57:38;95019.78;;;9.70;100.00
20119;BME280;10220;42.716;23.306;2023-03-04T13:03:16;94977.38;;;9.78;100.00
20119;BME280;10220;42.716;23.306;2023-03-04T13:22:40;94990.66;;;10.07;100.00
20119;BME280;10220;42.716;23.306;2023-03-04T13:25:38;94984.69;;;10.13;100.00
20119;BME280;10220;42.716;23.306;2023-03-04T13:41:21;94971.66;;;11.00;100.00
20119;BME280;10220;42.716;23.306;2023-03-04T13:51:39;94963.03;;;11.30;100.00
20119;BME280;10220;42.716;23.306;2023-03-04T13:54:32;94964.69;;;11.25;100.00
20119;BME280;10220;42.716;23.306;2023-03-04T13:59:38;94953.00;;;10.61;100.00
20119;BME280;10220;42.716;23.306;2023-03-04T14:02:11;94970.28;;;10.30;100.00
20119;BME280;10220;42.716;23.306;2023-03-04T14:04:55;94961.09;;;10.34;100.00
20119;BME280;10220;42.716;23.306;2023-03-04T14:12:53;94951.59;;;10.58;100.00
20119;BME280;10220;42.716;23.306;2023-03-04T14:17:48;94947.47;;;10.01;100.00
20119;BME280;10220;42.716;23.306;2023-03-04T14:20:35;94934.53;;;9.94;100.00
20119;BME280;10220;42.716;23.306;2023-03-04T14:23:04;94951.59;;;10.58;100.00
20119;BME280;10220;42.716;23.306;2023-03-04T14:25:46;94944.38;;;10.36;100.00
20119;BME280;10220;42.716;23.306;2023-03-04T14:28:15;94920.06;;;9.87;100.00
20119;BME280;10220;42.716;23.306;2023-03-04T14:30:51;94931.06;;;10.26;100.00
20119;BME280;10220;42.716;23.306;2023-03-04T14:33:23;94931.16;;;10.75;100.00
20119;BME280;10220;42.716;23.306;2023-03-04T14:35:55;94918.16;;;10.57;100.00
20119;BME280;10220;42.716;23.306;2023-03-04T14:40:57;94930.06;;;11.37;100.00
20119;BME280;10220;42.716;23.306;2023-03-04T14:43:24;94918.34;;;11.77;100.00
20119;BME280;10220;42.716;23.306;2023-03-04T14:45:54;94894.72;;;11.43;100.00
20119;BME280;10220;42.716;23.306;2023-03-04T14:48:23;94900.03;;;10.81;100.00
20119;BME280;10220;42.716;23.306;2023-03-04T14:50:53;94906.25;;;10.50;100.00